Time;durP1;ratioP1;P1;durP2;ratioP2;P2;SDS_P1;SDS_P2;PMS_P1;PMS_P2;Temp;Humidity;BMP_temperature;BMP_pressure;BME280_temperature;BME280_humidity;BME280_pressure;Samples;Min_cycle;Max_cycle;Signal;HPM_P1;HPM_P2
2022/04/30 00:02:01;;;;;;;16.58;5.82;;;;;;;;;;5044978;28;20045;-57
2022/04/30 00:04:27;;;;;;;11.40;6.07;;;;;;;;;;5045553;28;20048;-56
2022/04/30 00:06:54;;;;;;;11.07;5.30;;;;;;;;;;5045034;28;20064;-56
2022/04/30 00:09:20;;;;;;;13.07;5.72;;;;;;;;;;5044979;28;20067;-56
2022/04/30 00:11:46;;;;;;;11.43;5.45;;;;;;;;;;5044954;28;20051;-56
2022/04/30 00:14:12;;;;;;;11.88;5.78;;;;;;;;;;5043774;28;20048;-56
2022/04/30 00:16:38;;;;;;;13.52;5.70;;;;;;;;;;5044450;28;20047;-56
2022/04/30 00:19:06;;;;;;;13.77;5.70;;;;;;;;;;5045012;28;20119;-56
2022/04/30 00:21:32;;;;;;;11.18;6.05;;;;;;;;;;5044591;28;20048;-56
2022/04/30 00:23:58;;;;;;;11.25;5.43;;;;;;;;;;5044870;28;20145;-56
2022/04/30 00:26:25;;;;;;;9.00;5.18;;;;;;;;;;5045132;28;20037;-56
2022/04/30 00:28:52;;;;;;;13.68;6.05;;;;;;;;;;5043977;28;20091;-56
2022/04/30 00:31:18;;;;;;;13.00;5.85;;;;;;;;;;5044951;28;20056;-56
2022/04/30 00:33:48;;;;;;;14.80;5.97;;;;;;;;;;5044616;28;20526;-56
2022/04/30 00:36:14;;;;;;;11.93;6.15;;;;;;;;;;5044103;28;20495;-56
2022/04/30 00:38:41;;;;;;;14.73;5.93;;;;;;;;;;5026893;28;20053;-56
2022/04/30 00:41:08;;;;;;;20.77;6.40;;;;;;;;;;5044951;28;20083;-56
2022/04/30 00:43:45;;;;;;;11.38;5.75;;;;;;;;;;5043619;28;20487;-56
2022/04/30 00:46:12;;;;;;;11.68;6.15;;;;;;;;;;5044082;28;20041;-56
2022/04/30 00:48:38;;;;;;;13.57;5.93;;;;;;;;;;5044500;28;20044;-56
2022/04/30 00:51:05;;;;;;;9.65;5.30;;;;;;;;;;5044275;28;20498;-56
2022/04/30 00:53:33;;;;;;;14.63;6.45;;;;;;;;;;5044038;28;20048;-57
2022/04/30 00:56:00;;;;;;;16.08;6.88;;;;;;;;;;5044202;28;20041;-56
2022/04/30 00:58:29;;;;;;;11.80;5.95;;;;;;;;;;5044566;28;20048;-56
2022/04/30 01:00:55;;;;;;;14.38;6.25;;;;;;;;;;5044297;28;20049;-56
2022/04/30 01:03:22;;;;;;;17.50;6.60;;;;;;;;;;5027991;28;20049;-56
2022/04/30 01:05:49;;;;;;;16.02;6.40;;;;;;;;;;5023889;28;20426;-56
2022/04/30 01:08:16;;;;;;;10.60;5.63;;;;;;;;;;5023875;28;20055;-55
2022/04/30 01:10:42;;;;;;;10.30;5.53;;;;;;;;;;5047799;23;20103;-56
2022/04/30 01:13:08;;;;;;;13.18;6.00;;;;;;;;;;5044133;28;20098;-56
2022/04/30 01:15:35;;;;;;;12.70;5.60;;;;;;;;;;5042929;28;20099;-56
2022/04/30 01:18:01;;;;;;;11.77;6.20;;;;;;;;;;5024032;28;20383;-57
2022/04/30 01:20:28;;;;;;;13.90;6.18;;;;;;;;;;5024532;28;20414;-55
2022/04/30 01:22:58;;;;;;;9.40;5.55;;;;;;;;;;5024127;28;20045;-56
2022/04/30 01:25:24;;;;;;;11.25;5.50;;;;;;;;;;5023842;28;20525;-56
2022/04/30 01:27:52;;;;;;;12.45;5.22;;;;;;;;;;5023877;28;20064;-56
2022/04/30 01:30:19;;;;;;;11.85;5.35;;;;;;;;;;5022780;28;20111;-56
2022/04/30 01:38:15;;;;;;;12.27;5.88;;;;;;;;;;5024140;28;20085;-56
2022/04/30 01:40:42;;;;;;;13.80;6.20;;;;;;;;;;5023800;28;20041;-57
2022/04/30 01:43:08;;;;;;;11.65;5.95;;;;;;;;;;5023934;28;20060;-56
2022/04/30 01:45:35;;;;;;;11.55;5.45;;;;;;;;;;5023803;28;20048;-56
2022/04/30 01:48:02;;;;;;;10.38;5.78;;;;;;;;;;5027555;28;20398;-57
2022/04/30 01:50:28;;;;;;;12.70;5.88;;;;;;;;;;5028052;28;20085;-55
2022/04/30 01:52:54;;;;;;;15.25;6.00;;;;;;;;;;5027939;28;20041;-56
2022/04/30 01:55:20;;;;;;;9.25;5.93;;;;;;;;;;5027689;28;20053;-56
2022/04/30 01:57:46;;;;;;;12.43;5.57;;;;;;;;;;5009536;28;20053;-56
2022/04/30 02:00:14;;;;;;;12.30;6.05;;;;;;;;;;5026394;28;20487;-56
2022/04/30 02:02:44;;;;;;;15.43;6.07;;;;;;;;;;5027849;28;20460;-56
2022/04/30 02:05:12;;;;;;;14.40;6.22;;;;;;;;;;5010185;28;20049;-56
2022/04/30 02:07:42;;;;;;;11.80;5.45;;;;;;;;;;5027463;28;20449;-56
2022/04/30 02:10:08;;;;;;;11.02;5.90;;;;;;;;;;5026853;28;20127;-56
2022/04/30 02:12:34;;;;;;;14.73;6.57;;;;;;;;;;5027380;28;20041;-56
2022/04/30 02:15:01;;;;;;;12.63;6.43;;;;;;;;;;5026857;28;20045;-57
2022/04/30 02:17:29;;;;;;;14.35;6.25;;;;;;;;;;5027853;28;20041;-56
2022/04/30 02:22:41;;;;;;;17.83;6.47;;;;;;;;;;5027261;28;20045;-56
2022/04/30 02:25:09;;;;;;;14.23;6.30;;;;;;;;;;5027607;28;20049;-56
2022/04/30 02:27:38;;;;;;;13.13;5.95;;;;;;;;;;5027420;28;20042;-56
2022/04/30 02:30:07;;;;;;;12.27;6.07;;;;;;;;;;5026555;28;20718;-56
2022/04/30 02:32:33;;;;;;;;;;;;;;;;;;5027613;28;20049;-57
2022/04/30 02:34:59;;;;;;;9.88;5.57;;;;;;;;;;5027657;28;19921;-56
2022/04/30 02:37:25;;;;;;;12.98;6.15;;;;;;;;;;5027523;28;20483;-57
2022/04/30 02:39:52;;;;;;;10.93;6.55;;;;;;;;;;5026420;28;20045;-56
2022/04/30 02:42:18;;;;;;;12.93;5.75;;;;;;;;;;5027190;28;20053;-56
2022/04/30 02:44:44;;;;;;;8.38;5.15;;;;;;;;;;5026285;28;20038;-56
2022/04/30 02:47:10;;;;;;;13.77;5.28;;;;;;;;;;5027145;28;20033;-56
2022/04/30 02:49:38;;;;;;;11.95;5.97;;;;;;;;;;5009038;28;20045;-56
2022/04/30 02:52:04;;;;;;;16.52;6.97;;;;;;;;;;5008771;28;20050;-56
2022/04/30 02:54:34;;;;;;;11.95;5.60;;;;;;;;;;5026727;28;20106;-58
2022/04/30 02:57:01;;;;;;;10.52;5.95;;;;;;;;;;5025886;28;20049;-57
2022/04/30 03:02:12;;;;;;;12.48;5.70;;;;;;;;;;5026459;28;20133;-56
2022/04/30 03:04:38;;;;;;;10.55;5.70;;;;;;;;;;5026310;28;20037;-56
2022/04/30 03:07:04;;;;;;;11.88;5.43;;;;;;;;;;5026828;28;20052;-57
2022/04/30 03:09:31;;;;;;;11.15;6.00;;;;;;;;;;5026359;28;20053;-57
2022/04/30 03:11:58;;;;;;;14.00;5.85;;;;;;;;;;5026481;28;20521;-56
2022/04/30 03:14:24;;;;;;;13.45;6.22;;;;;;;;;;5025713;28;20939;-56
2022/04/30 03:22:20;;;;;;;14.63;6.57;;;;;;;;;;5026294;28;20136;-56
2022/04/30 03:24:46;;;;;;;9.88;5.38;;;;;;;;;;5026046;28;20088;-56
2022/04/30 03:27:17;;;;;;;12.90;6.63;;;;;;;;;;5026343;28;20045;-56
2022/04/30 03:29:44;;;;;;;13.70;6.03;;;;;;;;;;5025078;28;20045;-56
2022/04/30 03:32:10;;;;;;;11.27;5.88;;;;;;;;;;5026153;28;20056;-56
2022/04/30 03:34:37;;;;;;;14.32;5.68;;;;;;;;;;5025759;28;20060;-56
2022/04/30 03:37:03;;;;;;;13.35;6.70;;;;;;;;;;5026182;28;20040;-56
2022/04/30 03:39:29;;;;;;;13.95;6.03;;;;;;;;;;5025615;28;20041;-56
2022/04/30 03:41:55;;;;;;;13.10;6.18;;;;;;;;;;5026361;28;20091;-56
2022/04/30 03:44:22;;;;;;;12.98;5.68;;;;;;;;;;5025417;28;20045;-56
2022/04/30 03:46:48;;;;;;;9.85;4.80;;;;;;;;;;5025789;28;20041;-56
2022/04/30 03:49:14;;;;;;;12.10;5.90;;;;;;;;;;5008516;28;20046;-56
2022/04/30 03:51:40;;;;;;;11.70;5.38;;;;;;;;;;5024967;28;20368;-56
2022/04/30 03:54:06;;;;;;;15.40;5.75;;;;;;;;;;5025724;28;20041;-56
2022/04/30 03:56:33;;;;;;;11.18;5.47;;;;;;;;;;5025230;28;20046;-56
2022/04/30 03:58:59;;;;;;;10.15;5.80;;;;;;;;;;5025219;28;20120;-56
2022/04/30 04:01:25;;;;;;;10.50;5.45;;;;;;;;;;5026025;28;20094;-56
2022/04/30 04:03:52;;;;;;;10.75;5.30;;;;;;;;;;5024818;28;20053;-56
2022/04/30 04:06:18;;;;;;;13.52;6.05;;;;;;;;;;5025434;28;20052;-56
2022/04/30 04:08:49;;;;;;;13.95;6.47;;;;;;;;;;5007383;28;20179;-56
2022/04/30 04:11:16;;;;;;;11.68;5.68;;;;;;;;;;5025124;28;20681;-56
2022/04/30 04:19:12;;;;;;;11.77;5.40;;;;;;;;;;5025187;28;20053;-56
2022/04/30 04:21:38;;;;;;;11.07;6.03;;;;;;;;;;5006900;28;20094;-57
2022/04/30 04:26:49;;;;;;;9.65;5.25;;;;;;;;;;5024623;28;20045;-56
2022/04/30 04:29:16;;;;;;;11.55;5.13;;;;;;;;;;5023944;28;20034;-56
2022/04/30 04:31:44;;;;;;;10.23;6.13;;;;;;;;;;5007084;28;20041;-56
2022/04/30 04:34:10;;;;;;;13.90;5.67;;;;;;;;;;5024723;28;20049;-56
2022/04/30 04:36:37;;;;;;;14.18;5.80;;;;;;;;;;5024835;28;20353;-56
2022/04/30 04:39:11;;;;;;;11.98;4.90;;;;;;;;;;5024946;28;20590;-56
2022/04/30 04:41:37;;;;;;;10.55;5.93;;;;;;;;;;5024748;28;20155;-56
2022/04/30 04:44:03;;;;;;;15.27;6.85;;;;;;;;;;5024298;28;20052;-57
2022/04/30 04:46:29;;;;;;;14.73;6.30;;;;;;;;;;5025046;28;20407;-56
2022/04/30 04:48:56;;;;;;;12.07;6.03;;;;;;;;;;5025073;28;20049;-56
2022/04/30 04:51:22;;;;;;;12.07;6.18;;;;;;;;;;5023991;28;20140;-56
2022/04/30 04:53:48;;;;;;;11.57;5.95;;;;;;;;;;5024305;28;20091;-56
2022/04/30 04:56:14;;;;;;;14.60;5.90;;;;;;;;;;5006858;28;20454;-56
2022/04/30 04:58:40;;;;;;;12.02;6.80;;;;;;;;;;5023401;28;20344;-56
2022/04/30 05:01:06;;;;;;;11.98;6.43;;;;;;;;;;5024298;28;20042;-56
2022/04/30 05:03:32;;;;;;;13.70;6.20;;;;;;;;;;5023928;28;20043;-56
2022/04/30 05:05:59;;;;;;;14.38;6.15;;;;;;;;;;5007330;28;20041;-57
2022/04/30 05:08:25;;;;;;;10.57;6.03;;;;;;;;;;5024605;28;20454;-56
2022/04/30 05:10:51;;;;;;;13.43;6.75;;;;;;;;;;5023960;28;20580;-57
2022/04/30 05:13:17;;;;;;;18.63;6.30;;;;;;;;;;5023431;28;20123;-56
2022/04/30 05:15:44;;;;;;;12.00;6.00;;;;;;;;;;4989499;28;20096;-56
2022/04/30 05:18:10;;;;;;;13.80;6.53;;;;;;;;;;5024241;28;20108;-56
2022/04/30 05:20:37;;;;;;;13.40;5.93;;;;;;;;;;5023534;28;20045;-56
2022/04/30 05:23:03;;;;;;;13.45;6.57;;;;;;;;;;5024248;28;20068;-56
2022/04/30 05:25:30;;;;;;;13.20;5.85;;;;;;;;;;5024256;28;20241;-56
2022/04/30 05:27:56;;;;;;;14.18;6.43;;;;;;;;;;5023376;28;20046;-56
2022/04/30 05:30:23;;;;;;;15.13;6.47;;;;;;;;;;5006568;28;20120;-56
2022/04/30 05:32:49;;;;;;;16.33;6.15;;;;;;;;;;5024021;28;20041;-56
2022/04/30 05:35:15;;;;;;;11.95;5.72;;;;;;;;;;5024105;28;20091;-56
2022/04/30 05:37:41;;;;;;;19.75;7.38;;;;;;;;;;5023534;28;20044;-56
2022/04/30 05:40:07;;;;;;;14.15;6.57;;;;;;;;;;5024349;28;20042;-56
2022/04/30 05:42:33;;;;;;;14.02;6.18;;;;;;;;;;5024050;28;20081;-56
2022/04/30 05:45:00;;;;;;;15.13;7.10;;;;;;;;;;5023607;28;20042;-57
2022/04/30 05:47:26;;;;;;;14.23;7.13;;;;;;;;;;5025713;28;20045;-56
2022/04/30 05:49:52;;;;;;;14.75;6.30;;;;;;;;;;5024531;28;20440;-56
2022/04/30 05:52:19;;;;;;;11.48;6.15;;;;;;;;;;5043379;28;20167;-56
2022/04/30 06:01:30;;;;;;;13.18;6.97;;;;;;;;;;5041055;28;20086;-56
2022/04/30 06:03:56;;;;;;;16.08;6.53;;;;;;;;;;5043525;28;20053;-55
2022/04/30 06:06:22;;;;;;;14.75;7.35;;;;;;;;;;5039979;28;20495;-56
2022/04/30 06:08:50;;;;;;;10.52;6.65;;;;;;;;;;5042460;28;20045;-58
2022/04/30 06:11:17;;;;;;;13.32;7.10;;;;;;;;;;5043067;28;20500;-56
2022/04/30 06:13:43;;;;;;;11.27;6.15;;;;;;;;;;5042069;28;20072;-56
2022/04/30 06:16:09;;;;;;;14.30;6.88;;;;;;;;;;5043294;28;20524;-56
2022/04/30 06:18:36;;;;;;;15.13;6.72;;;;;;;;;;5042380;28;20037;-55
2022/04/30 06:21:02;;;;;;;11.60;6.40;;;;;;;;;;5043575;28;20049;-55
2022/04/30 06:23:28;;;;;;;14.77;6.43;;;;;;;;;;5035894;28;20044;-55
2022/04/30 06:25:54;;;;;;;17.80;6.10;;;;;;;;;;5036880;28;20037;-55
2022/04/30 06:28:20;;;;;;;14.95;6.93;;;;;;;;;;5022784;28;20085;-55
2022/04/30 06:30:47;;;;;;;15.18;7.35;;;;;;;;;;5022550;28;20487;-55
2022/04/30 06:33:13;;;;;;;26.27;7.18;;;;;;;;;;5026413;28;20377;-55
2022/04/30 06:35:39;;;;;;;11.35;6.70;;;;;;;;;;5026842;28;20053;-55
2022/04/30 06:38:06;;;;;;;10.73;6.07;;;;;;;;;;5009464;28;20144;-55
2022/04/30 06:40:32;;;;;;;13.50;6.40;;;;;;;;;;5039917;28;20055;-55
2022/04/30 06:42:59;;;;;;;13.40;6.30;;;;;;;;;;5045046;28;20037;-56
2022/04/30 06:45:25;;;;;;;13.02;6.07;;;;;;;;;;5028028;28;20046;-56
2022/04/30 06:47:52;;;;;;;9.55;5.18;;;;;;;;;;5034150;28;20041;-56
2022/04/30 06:50:18;;;;;;;12.68;5.40;;;;;;;;;;5046102;28;20033;-56
2022/04/30 06:58:14;;;;;;;9.52;5.45;;;;;;;;;;5036407;28;20041;-56
2022/04/30 07:03:24;;;;;;;12.27;5.22;;;;;;;;;;5026623;28;20045;-56
2022/04/30 07:05:52;;;;;;;13.57;5.80;;;;;;;;;;5026573;28;20041;-56
2022/04/30 07:08:18;;;;;;;9.00;5.15;;;;;;;;;;5026042;28;20046;-56
2022/04/30 07:10:44;;;;;;;12.15;5.78;;;;;;;;;;5026148;28;20053;-56
2022/04/30 07:13:10;;;;;;;9.48;5.55;;;;;;;;;;5025806;28;20041;-56
2022/04/30 07:15:36;;;;;;;12.80;5.80;;;;;;;;;;5026240;28;20056;-57
2022/04/30 07:18:03;;;;;;;13.50;5.75;;;;;;;;;;5026584;28;20037;-57
2022/04/30 07:20:29;;;;;;;12.70;5.72;;;;;;;;;;5026058;28;20044;-56
2022/04/30 07:22:55;;;;;;;10.02;5.10;;;;;;;;;;5026324;28;20145;-56
2022/04/30 07:25:21;;;;;;;8.77;5.32;;;;;;;;;;5026102;28;20041;-56
2022/04/30 07:27:47;;;;;;;13.35;5.15;;;;;;;;;;5024738;28;20064;-56
2022/04/30 07:30:14;;;;;;;10.63;4.88;;;;;;;;;;5025639;28;20660;-56
2022/04/30 07:32:40;;;;;;;11.32;4.63;;;;;;;;;;5024979;28;20513;-57
2022/04/30 07:35:07;;;;;;;4.68;4.00;;;;;;;;;;5027799;28;20144;-56
2022/04/30 07:37:33;;;;;;;9.27;5.15;;;;;;;;;;5044710;28;20399;-56
2022/04/30 07:39:59;;;;;;;10.13;4.72;;;;;;;;;;5045858;28;20693;-56
2022/04/30 07:42:25;;;;;;;12.68;4.60;;;;;;;;;;5045327;28;20037;-57
2022/04/30 07:44:52;;;;;;;9.82;4.97;;;;;;;;;;5044046;28;20049;-57
2022/04/30 07:47:18;;;;;;;6.32;3.45;;;;;;;;;;5045528;28;20052;-56
2022/04/30 07:49:44;;;;;;;8.98;3.85;;;;;;;;;;5045040;28;20041;-56
2022/04/30 07:52:11;;;;;;;8.65;4.50;;;;;;;;;;5045625;28;20064;-56
2022/04/30 07:54:40;;;;;;;10.32;5.03;;;;;;;;;;5045139;28;20141;-57
2022/04/30 07:57:06;;;;;;;12.65;5.07;;;;;;;;;;5045112;28;20479;-56
2022/04/30 07:59:33;;;;;;;12.70;5.25;;;;;;;;;;5044614;28;20095;-57
2022/04/30 08:01:59;;;;;;;10.48;5.15;;;;;;;;;;5046006;28;20041;-56
2022/04/30 08:04:25;;;;;;;11.05;5.30;;;;;;;;;;5045491;28;20056;-57
2022/04/30 08:06:51;;;;;;;10.55;4.95;;;;;;;;;;5044476;28;20049;-57
2022/04/30 08:09:17;;;;;;;16.88;5.53;;;;;;;;;;5045169;28;20107;-57
2022/04/30 08:11:43;;;;;;;12.55;5.43;;;;;;;;;;5045063;28;20055;-57
2022/04/30 08:14:10;;;;;;;11.93;4.80;;;;;;;;;;5044373;28;20053;-56
2022/04/30 08:16:36;;;;;;;10.90;5.53;;;;;;;;;;5044498;28;20049;-57
2022/04/30 08:19:02;;;;;;;10.68;5.75;;;;;;;;;;5044131;28;20044;-56
2022/04/30 08:21:28;;;;;;;15.23;5.88;;;;;;;;;;5045220;28;20052;-56
2022/04/30 08:23:54;;;;;;;11.98;5.80;;;;;;;;;;5044816;28;20045;-56
2022/04/30 08:26:21;;;;;;;14.27;5.43;;;;;;;;;;5044949;28;20077;-57
2022/04/30 08:28:47;;;;;;;15.23;6.47;;;;;;;;;;5043639;28;20120;-56
2022/04/30 08:31:13;;;;;;;8.35;5.35;;;;;;;;;;5044046;28;20079;-56
2022/04/30 08:33:39;;;;;;;12.32;6.18;;;;;;;;;;5044296;28;20045;-56
2022/04/30 08:36:06;;;;;;;10.05;5.88;;;;;;;;;;5044791;28;20490;-56
2022/04/30 08:38:32;;;;;;;13.05;6.00;;;;;;;;;;5044212;28;20482;-56
2022/04/30 08:40:58;;;;;;;13.40;5.93;;;;;;;;;;5045201;28;20098;-57
2022/04/30 08:43:24;;;;;;;12.40;6.20;;;;;;;;;;5043628;28;20044;-57
2022/04/30 08:45:50;;;;;;;16.60;6.38;;;;;;;;;;5044418;28;20127;-56
2022/04/30 08:48:17;;;;;;;10.45;5.85;;;;;;;;;;5044401;28;20083;-56
2022/04/30 08:50:45;;;;;;;11.93;5.93;;;;;;;;;;5044207;28;20522;-56
2022/04/30 08:53:11;;;;;;;16.00;6.15;;;;;;;;;;5043789;28;20544;-57
2022/04/30 08:55:37;;;;;;;10.45;5.72;;;;;;;;;;5043018;28;21386;-56
2022/04/30 08:58:04;;;;;;;11.45;6.22;;;;;;;;;;5042674;28;20092;-56
2022/04/30 09:00:30;;;;;;;9.68;6.22;;;;;;;;;;5043813;28;20052;-57
2022/04/30 09:02:59;;;;;;;15.32;6.38;;;;;;;;;;5044526;28;20045;-56
2022/04/30 09:05:31;;;;;;;10.77;5.82;;;;;;;;;;5043987;28;20329;-57
2022/04/30 09:07:58;;;;;;;10.93;6.38;;;;;;;;;;5044444;28;20098;-57
2022/04/30 09:10:26;;;;;;;10.20;6.15;;;;;;;;;;5044114;28;20130;-56
2022/04/30 09:12:52;;;;;;;9.53;5.87;;;;;;;;;;5042583;28;20087;-56
2022/04/30 09:15:19;;;;;;;13.35;5.57;;;;;;;;;;5043081;28;20084;-56
2022/04/30 09:17:56;;;;;;;12.55;5.70;;;;;;;;;;5043764;28;20123;-57
2022/04/30 09:20:22;;;;;;;12.85;5.85;;;;;;;;;;5043928;28;20041;-56
2022/04/30 09:22:48;;;;;;;11.05;5.20;;;;;;;;;;5043649;28;20060;-56
2022/04/30 09:25:16;;;;;;;9.13;5.40;;;;;;;;;;5043216;28;20461;-57
2022/04/30 09:27:46;;;;;;;13.37;5.97;;;;;;;;;;5042974;28;20041;-57
2022/04/30 09:30:17;;;;;;;13.68;5.70;;;;;;;;;;5043996;28;20851;-56
2022/04/30 09:32:44;;;;;;;10.75;6.45;;;;;;;;;;5043680;28;20049;-57
2022/04/30 09:38:14;;;;;;;12.45;5.20;;;;;;;;;;5043390;28;20511;-57
2022/04/30 09:40:40;;;;;;;11.10;5.20;;;;;;;;;;5043354;28;20045;-56
2022/04/30 09:43:15;;;;;;;11.38;6.15;;;;;;;;;;5042586;28;20044;-56
2022/04/30 09:45:42;;;;;;;11.55;5.78;;;;;;;;;;5043371;28;20055;-56
2022/04/30 09:53:56;;;;;;;10.73;5.43;;;;;;;;;;5042281;28;20078;-56
2022/04/30 09:56:37;;;;;;;12.30;5.28;;;;;;;;;;5043767;28;20049;-56
2022/04/30 09:59:04;;;;;;;9.55;5.05;;;;;;;;;;5042349;28;20048;-57
2022/04/30 10:01:34;;;;;;;7.90;5.10;;;;;;;;;;5042680;28;20558;-57
2022/04/30 10:04:05;;;;;;;6.15;4.47;;;;;;;;;;5043657;28;20115;-58
2022/04/30 10:06:31;;;;;;;10.30;4.95;;;;;;;;;;5043436;28;20053;-57
2022/04/30 10:08:58;;;;;;;15.88;4.97;;;;;;;;;;5047287;28;20041;-56
2022/04/30 10:11:34;;;;;;;9.40;4.40;;;;;;;;;;5046048;28;20849;-57
2022/04/30 10:14:15;;;;;;;8.77;4.68;;;;;;;;;;5043651;28;20524;-57
2022/04/30 10:16:55;;;;;;;9.90;4.07;;;;;;;;;;5032010;28;20045;-57
2022/04/30 10:19:21;;;;;;;6.95;3.70;;;;;;;;;;5024487;28;20419;-56
2022/04/30 10:22:07;;;;;;;14.10;4.35;;;;;;;;;;5034367;28;20791;-56
2022/04/30 10:24:33;;;;;;;8.98;4.13;;;;;;;;;;5030830;28;20077;-55
2022/04/30 10:27:00;;;;;;;5.68;3.40;;;;;;;;;;5030125;28;20042;-56
2022/04/30 10:29:26;;;;;;;9.40;4.63;;;;;;;;;;5028130;28;20095;-56
2022/04/30 10:31:52;;;;;;;9.60;6.05;;;;;;;;;;5045954;28;20375;-56
2022/04/30 10:34:27;;;;;;;10.10;3.53;;;;;;;;;;5028650;28;20037;-56
2022/04/30 10:36:55;;;;;;;13.60;3.85;;;;;;;;;;5046538;28;20044;-57
2022/04/30 10:39:21;;;;;;;11.98;3.10;;;;;;;;;;5028507;28;20490;-56
2022/04/30 10:41:50;;;;;;;17.58;3.65;;;;;;;;;;5046522;28;20529;-56
2022/04/30 10:44:27;;;;;;;10.93;3.08;;;;;;;;;;5024920;28;20045;-56
2022/04/30 10:46:53;;;;;;;4.70;3.20;;;;;;;;;;5046716;28;20076;-56
2022/04/30 10:49:19;;;;;;;5.63;3.08;;;;;;;;;;5047136;28;20080;-56
2022/04/30 10:51:45;;;;;;;8.00;3.17;;;;;;;;;;5047048;28;20131;-56
2022/04/30 10:54:16;;;;;;;8.93;3.40;;;;;;;;;;5029332;28;20119;-56
2022/04/30 10:56:42;;;;;;;5.28;3.35;;;;;;;;;;5046608;28;20045;-56
2022/04/30 10:59:09;;;;;;;7.55;3.53;;;;;;;;;;5045792;28;20076;-56
2022/04/30 11:01:35;;;;;;;8.52;3.50;;;;;;;;;;5046262;28;20083;-56
2022/04/30 11:04:02;;;;;;;6.97;3.85;;;;;;;;;;5046809;28;20053;-57
2022/04/30 11:06:31;;;;;;;6.95;3.60;;;;;;;;;;5046893;28;20137;-56
2022/04/30 11:09:01;;;;;;;8.48;3.60;;;;;;;;;;5046313;28;20040;-56
2022/04/30 11:11:28;;;;;;;6.95;3.50;;;;;;;;;;5047079;28;20055;-56
2022/04/30 11:13:55;;;;;;;4.93;3.33;;;;;;;;;;5045562;28;20051;-56
2022/04/30 11:16:28;;;;;;;8.35;3.45;;;;;;;;;;5038105;28;20041;-56
2022/04/30 11:18:59;;;;;;;22.30;4.25;;;;;;;;;;5027211;28;20038;-56
2022/04/30 11:21:31;;;;;;;11.27;3.97;;;;;;;;;;5039283;28;20043;-56
2022/04/30 11:23:58;;;;;;;8.35;3.70;;;;;;;;;;5027698;28;20045;-56
2022/04/30 11:26:24;;;;;;;6.53;3.50;;;;;;;;;;5046381;28;20125;-56
2022/04/30 11:28:50;;;;;;;7.90;3.65;;;;;;;;;;5045651;28;20139;-56
2022/04/30 11:31:20;;;;;;;12.70;3.90;;;;;;;;;;5046521;28;20082;-56
2022/04/30 11:33:46;;;;;;;8.52;3.95;;;;;;;;;;5045401;28;20090;-56
2022/04/30 11:36:13;;;;;;;6.30;3.78;;;;;;;;;;5046173;28;20049;-56
2022/04/30 11:38:39;;;;;;;19.98;4.00;;;;;;;;;;5027842;28;20418;-56
2022/04/30 11:41:06;;;;;;;7.05;3.35;;;;;;;;;;5045160;28;20090;-56
2022/04/30 11:43:32;;;;;;;8.60;4.30;;;;;;;;;;5045286;28;20049;-57
2022/04/30 11:46:00;;;;;;;6.07;3.97;;;;;;;;;;5046192;28;20045;-56
2022/04/30 11:48:31;;;;;;;8.07;4.33;;;;;;;;;;5046276;28;20179;-56
2022/04/30 11:50:58;;;;;;;9.13;4.45;;;;;;;;;;5028476;28;20113;-56
2022/04/30 11:53:25;;;;;;;16.95;4.35;;;;;;;;;;5025917;28;20065;-56
2022/04/30 11:55:51;;;;;;;8.52;4.68;;;;;;;;;;5007849;28;20041;-56
2022/04/30 11:58:17;;;;;;;9.18;4.68;;;;;;;;;;5024948;28;20103;-56
2022/04/30 12:00:43;;;;;;;8.98;5.13;;;;;;;;;;5032164;28;20041;-57
2022/04/30 12:03:09;;;;;;;6.60;4.75;;;;;;;;;;5045728;28;20040;-56
2022/04/30 12:05:35;;;;;;;9.32;4.32;;;;;;;;;;5045218;28;20079;-56
2022/04/30 12:08:04;;;;;;;13.07;5.00;;;;;;;;;;5045188;28;20060;-56
2022/04/30 12:10:30;;;;;;;17.58;4.88;;;;;;;;;;5025070;28;20065;-57
2022/04/30 12:12:57;;;;;;;5.82;4.18;;;;;;;;;;5025162;28;20061;-57
2022/04/30 12:15:25;;;;;;;8.77;4.32;;;;;;;;;;5024760;28;20050;-57
2022/04/30 12:26:25;;;;;;;8.82;4.30;;;;;;;;;;5025351;28;20498;-57
2022/04/30 12:28:52;;;;;;;9.05;4.00;;;;;;;;;;5023628;28;20045;-56
2022/04/30 12:31:19;;;;;;;13.60;4.00;;;;;;;;;;5025096;28;20494;-57
2022/04/30 12:33:48;;;;;;;8.93;3.53;;;;;;;;;;5024478;28;20049;-57
2022/04/30 12:36:15;;;;;;;8.15;4.43;;;;;;;;;;5025358;28;20577;-57
2022/04/30 12:38:51;;;;;;;7.50;4.10;;;;;;;;;;5023810;28;20034;-57
2022/04/30 12:41:18;;;;;;;9.00;4.40;;;;;;;;;;5021873;28;20052;-57
2022/04/30 12:43:44;;;;;;;7.50;3.83;;;;;;;;;;5021314;28;20461;-57
2022/04/30 12:46:18;;;;;;;11.30;3.67;;;;;;;;;;5022736;28;20107;-57
2022/04/30 12:48:45;;;;;;;11.65;4.53;;;;;;;;;;5022434;28;20072;-57
2022/04/30 12:51:11;;;;;;;10.60;4.05;;;;;;;;;;5021855;28;20057;-57
2022/04/30 12:53:37;;;;;;;12.68;4.35;;;;;;;;;;5020653;28;20041;-57
2022/04/30 12:56:04;;;;;;;8.27;4.15;;;;;;;;;;5021808;28;20553;-57
2022/04/30 12:58:30;;;;;;;6.72;4.05;;;;;;;;;;5021179;28;20033;-58
2022/04/30 13:00:56;;;;;;;8.18;4.30;;;;;;;;;;5022799;28;20041;-57
2022/04/30 13:03:22;;;;;;;10.02;4.32;;;;;;;;;;5022137;28;20048;-57
2022/04/30 13:05:48;;;;;;;8.38;3.92;;;;;;;;;;5021837;28;20045;-57
2022/04/30 13:08:15;;;;;;;12.75;4.65;;;;;;;;;;5025699;28;20049;-57
2022/04/30 13:13:32;;;;;;;8.75;4.22;;;;;;;;;;5021549;28;20045;-56
2022/04/30 13:15:59;;;;;;;13.00;4.47;;;;;;;;;;5022195;28;20091;-56
2022/04/30 13:18:25;;;;;;;10.15;3.95;;;;;;;;;;5021896;28;20585;-56
2022/04/30 13:20:51;;;;;;;8.27;3.78;;;;;;;;;;5021607;28;20056;-56
2022/04/30 13:23:17;;;;;;;13.43;4.72;;;;;;;;;;5021819;28;20041;-56
2022/04/30 13:25:43;;;;;;;7.78;4.10;;;;;;;;;;5023362;28;20427;-55
2022/04/30 13:28:10;;;;;;;7.45;4.28;;;;;;;;;;5034054;28;20084;-56
2022/04/30 13:30:36;;;;;;;10.43;4.43;;;;;;;;;;5021208;28;20159;-55
2022/04/30 13:33:04;;;;;;;6.22;4.15;;;;;;;;;;5021827;28;20045;-57
2022/04/30 13:35:30;;;;;;;6.25;4.00;;;;;;;;;;5021158;28;20124;-58
2022/04/30 13:37:56;;;;;;;10.35;4.18;;;;;;;;;;5037697;28;20583;-57
2022/04/30 13:40:22;;;;;;;8.23;4.90;;;;;;;;;;5037076;28;20639;-57
2022/04/30 13:42:48;;;;;;;8.25;4.00;;;;;;;;;;5042855;28;20106;-57
2022/04/30 13:45:15;;;;;;;7.25;3.95;;;;;;;;;;5048330;28;20041;-57
2022/04/30 13:47:41;;;;;;;7.05;3.88;;;;;;;;;;5047534;28;20057;-57
2022/04/30 13:50:08;;;;;;;9.50;4.50;;;;;;;;;;5044395;28;20120;-56
2022/04/30 13:52:35;;;;;;;9.80;3.97;;;;;;;;;;5047820;28;20136;-57
2022/04/30 13:55:02;;;;;;;7.93;4.03;;;;;;;;;;5048465;28;20061;-57
2022/04/30 13:57:29;;;;;;;7.57;3.60;;;;;;;;;;5047404;28;20041;-57
2022/04/30 13:59:55;;;;;;;7.25;3.65;;;;;;;;;;5048638;28;20053;-57
2022/04/30 14:02:22;;;;;;;8.77;3.88;;;;;;;;;;5047948;28;20102;-57
2022/04/30 14:04:48;;;;;;;7.30;3.90;;;;;;;;;;5047480;28;20099;-57
2022/04/30 14:07:14;;;;;;;6.35;3.40;;;;;;;;;;5045761;28;20106;-57
2022/04/30 14:09:40;;;;;;;10.50;3.58;;;;;;;;;;5046305;28;20061;-57
2022/04/30 14:12:07;;;;;;;12.52;4.57;;;;;;;;;;5049777;28;20120;-57
2022/04/30 14:20:05;;;;;;;7.05;3.58;;;;;;;;;;5050577;28;20048;-57
2022/04/30 14:22:33;;;;;;;7.28;4.18;;;;;;;;;;5050374;28;20574;-58
2022/04/30 14:24:59;;;;;;;;;;;;;;;;;;5050844;28;20040;-56
2022/04/30 14:27:26;;;;;;;8.07;3.42;;;;;;;;;;5050062;28;19964;-57
2022/04/30 14:29:52;;;;;;;7.05;3.50;;;;;;;;;;5050046;28;20041;-57
2022/04/30 14:32:19;;;;;;;7.90;3.63;;;;;;;;;;5050520;28;20585;-57
2022/04/30 14:34:46;;;;;;;9.30;3.90;;;;;;;;;;5050121;28;20048;-57
2022/04/30 14:37:12;;;;;;;10.70;3.80;;;;;;;;;;5050434;28;20048;-57
2022/04/30 14:39:41;;;;;;;8.90;4.22;;;;;;;;;;5049083;28;20045;-57
2022/04/30 14:42:08;;;;;;;8.10;4.50;;;;;;;;;;5049019;28;20445;-57
2022/04/30 14:44:34;;;;;;;5.65;3.50;;;;;;;;;;5037714;28;20045;-57
2022/04/30 14:47:02;;;;;;;6.45;4.10;;;;;;;;;;5036959;28;20118;-57
2022/04/30 14:49:29;;;;;;;8.70;4.20;;;;;;;;;;5031769;28;20056;-57
2022/04/30 14:51:55;;;;;;;7.95;4.43;;;;;;;;;;5050095;28;20064;-57
2022/04/30 14:54:21;;;;;;;10.93;4.38;;;;;;;;;;5047201;28;20049;-57
2022/04/30 14:56:47;;;;;;;10.75;4.47;;;;;;;;;;5042058;28;20069;-57
2022/04/30 14:59:13;;;;;;;8.10;4.10;;;;;;;;;;5026630;28;20045;-57
2022/04/30 15:01:39;;;;;;;9.35;4.20;;;;;;;;;;5026532;28;20124;-57
2022/04/30 15:04:06;;;;;;;9.30;4.07;;;;;;;;;;5026922;28;20041;-57
2022/04/30 15:06:32;;;;;;;9.07;4.55;;;;;;;;;;5008411;28;20560;-57
2022/04/30 15:08:58;;;;;;;6.38;4.43;;;;;;;;;;5026965;28;20056;-57
2022/04/30 15:11:26;;;;;;;8.65;3.67;;;;;;;;;;5025621;28;20557;-57
2022/04/30 15:13:52;;;;;;;6.70;4.13;;;;;;;;;;5026512;28;20044;-57
2022/04/30 15:16:18;;;;;;;11.00;3.90;;;;;;;;;;5026957;28;20088;-57
2022/04/30 15:18:45;;;;;;;15.65;4.53;;;;;;;;;;5026091;28;20428;-57
2022/04/30 15:21:11;;;;;;;7.20;3.80;;;;;;;;;;5026099;28;20045;-57
2022/04/30 15:23:37;;;;;;;9.40;3.72;;;;;;;;;;5026242;28;20045;-57
2022/04/30 15:26:04;;;;;;;7.55;3.35;;;;;;;;;;5026444;28;20088;-57
2022/04/30 15:28:30;;;;;;;7.65;3.50;;;;;;;;;;5025585;28;20099;-57
2022/04/30 15:30:57;;;;;;;12.73;3.92;;;;;;;;;;5026837;28;20045;-57
2022/04/30 15:33:23;;;;;;;5.60;3.50;;;;;;;;;;5026405;28;20053;-57
2022/04/30 15:35:49;;;;;;;8.13;3.40;;;;;;;;;;5025472;28;20054;-57
2022/04/30 15:38:15;;;;;;;8.25;4.38;;;;;;;;;;5026216;28;20491;-57
2022/04/30 15:40:48;;;;;;;7.63;3.60;;;;;;;;;;5025876;28;20037;-57